createdAt,value
2023-09-11T00:01:37.181Z,11.87
2023-09-11T00:04:09.677Z,12.07
2023-09-11T00:06:39.513Z,12.63
2023-09-11T00:09:21.173Z,11.90
2023-09-11T00:11:54.140Z,12.20
2023-09-11T00:14:39.035Z,12.20
2023-09-11T00:17:22.594Z,12.10
2023-09-11T00:19:53.257Z,11.87
2023-09-11T00:22:27.527Z,12.73
2023-09-11T00:25:10.867Z,11.97
2023-09-11T00:28:08.013Z,11.83
2023-09-11T00:30:42.662Z,11.67
2023-09-11T00:33:48.057Z,12.07
2023-09-11T00:36:23.639Z,12.10
2023-09-11T00:38:56.667Z,11.43
2023-09-11T00:41:37.490Z,12.37
2023-09-11T00:44:07.913Z,12.77
2023-09-11T00:49:33.552Z,13.57
2023-09-11T00:52:23.271Z,13.70
2023-09-11T00:55:18.973Z,14.50
2023-09-11T00:57:53.389Z,16.13
2023-09-11T01:00:27.641Z,15.50
2023-09-11T01:03:03.976Z,15.20
2023-09-11T01:05:52.480Z,15.30
2023-09-11T01:08:25.399Z,14.83
2023-09-11T01:11:12.984Z,16.97
2023-09-11T01:14:06.397Z,16.60
2023-09-11T01:16:51.085Z,15.70
2023-09-11T01:19:51.770Z,16.63
2023-09-11T01:23:00.527Z,16.70
2023-09-11T01:26:12.319Z,18.73
2023-09-11T01:38:14.285Z,13.47
2023-09-11T01:40:56.432Z,13.97
2023-09-11T01:43:56.300Z,13.60
2023-09-11T01:46:42.079Z,12.63
2023-09-11T01:49:19.218Z,12.57
2023-09-11T01:52:12.568Z,12.80
2023-09-11T01:54:50.581Z,13.07
2023-09-11T01:57:30.711Z,12.30
2023-09-11T02:00:19.523Z,12.80
2023-09-11T02:03:09.790Z,11.87
2023-09-11T02:05:41.589Z,13.20
2023-09-11T02:08:16.518Z,13.30
2023-09-11T02:10:46.574Z,13.63
2023-09-11T02:13:19.085Z,13.73
2023-09-11T02:16:11.614Z,12.30
2023-09-11T02:18:43.734Z,13.27
2023-09-11T02:21:30.035Z,11.87
2023-09-11T02:24:14.234Z,12.40
2023-09-11T02:26:51.821Z,12.27
2023-09-11T02:29:23.038Z,11.50
2023-09-11T02:32:08.432Z,11.90
2023-09-11T02:34:57.230Z,13.37
2023-09-11T02:37:59.378Z,13.13
2023-09-11T02:40:46.270Z,12.43
2023-09-11T02:43:19.125Z,12.70
2023-09-11T02:46:15.685Z,11.53
2023-09-11T02:49:12.330Z,12.47
2023-09-11T02:51:55.650Z,13.13
2023-09-11T02:54:42.463Z,12.40
2023-09-11T02:57:16.663Z,12.40
2023-09-11T02:59:58.092Z,12.03
2023-09-11T03:02:35.739Z,12.83
2023-09-11T03:05:12.750Z,12.77
2023-09-11T03:07:48.441Z,12.77
2023-09-11T03:10:25.983Z,12.20
2023-09-11T03:12:58.944Z,11.90
2023-09-11T03:15:50.262Z,12.60
2023-09-11T03:18:20.784Z,12.00
2023-09-11T03:21:01.694Z,12.67
2023-09-11T03:23:38.886Z,13.13
2023-09-11T03:26:23.084Z,12.50
2023-09-11T03:29:02.547Z,12.77
2023-09-11T03:31:46.968Z,13.83
2023-09-11T03:37:15.773Z,13.93
2023-09-11T03:40:13.013Z,13.00
2023-09-11T03:42:53.124Z,14.93
2023-09-11T03:45:33.866Z,12.63
2023-09-11T03:48:06.477Z,13.70
2023-09-11T03:50:57.933Z,12.67
2023-09-11T03:53:41.984Z,13.70
2023-09-11T03:56:25.710Z,14.17
2023-09-11T03:59:08.704Z,13.57
2023-09-11T04:01:54.821Z,12.00
2023-09-11T04:04:35.223Z,14.00
2023-09-11T04:07:21.726Z,14.50
2023-09-11T04:09:57.264Z,13.33
2023-09-11T04:12:28.978Z,13.30
2023-09-11T04:15:00.923Z,12.30
2023-09-11T04:17:41.523Z,13.00
2023-09-11T04:20:12.407Z,13.30
2023-09-11T04:22:45.434Z,13.50
2023-09-11T04:25:26.222Z,13.20
2023-09-11T04:28:06.167Z,13.67
2023-09-11T04:30:44.960Z,12.90
2023-09-11T04:33:16.196Z,13.80
2023-09-11T04:35:47.305Z,12.77
2023-09-11T04:38:24.564Z,13.20
2023-09-11T04:41:04.026Z,13.07
2023-09-11T04:43:38.598Z,13.03
2023-09-11T04:46:12.426Z,15.00
2023-09-11T04:49:21.468Z,14.43
2023-09-11T04:51:53.781Z,13.20
2023-09-11T04:54:46.388Z,15.00
2023-09-11T04:57:27.150Z,13.83
2023-09-11T05:00:04.895Z,15.80
2023-09-11T05:03:02.597Z,14.27
2023-09-11T05:06:26.437Z,16.47
2023-09-11T05:09:11.507Z,14.00
2023-09-11T05:12:31.365Z,13.90
2023-09-11T05:15:27.177Z,14.10
2023-09-11T05:18:14.402Z,14.80
2023-09-11T05:20:43.157Z,13.83
2023-09-11T05:23:17.278Z,15.13
2023-09-11T05:25:47.760Z,14.37
2023-09-11T05:28:19.463Z,15.60
2023-09-11T05:30:48.456Z,16.17
2023-09-11T05:33:18.649Z,15.33
2023-09-11T05:35:53.578Z,14.63
2023-09-11T05:39:06.770Z,13.88
2023-09-11T05:45:10.402Z,13.93
2023-09-11T05:47:43.517Z,12.65
2023-09-11T05:50:16.072Z,14.93
2023-09-11T05:53:13.028Z,13.57
2023-09-11T05:56:03.608Z,15.00
2023-09-11T05:58:45.700Z,15.25
2023-09-11T06:01:31.821Z,13.93
2023-09-11T06:08:44.476Z,12.30
2023-09-11T06:11:45.594Z,13.88
2023-09-11T06:14:57.412Z,13.60
2023-09-11T06:17:48.502Z,14.10
2023-09-11T06:20:47.797Z,14.48
2023-09-11T06:23:19.621Z,14.32
2023-09-11T06:25:51.152Z,14.38
2023-09-11T06:33:24.919Z,14.25
2023-09-11T06:37:03.567Z,12.95
2023-09-11T06:43:06.786Z,11.00
2023-09-11T06:45:35.795Z,12.23
2023-09-11T06:48:04.342Z,12.48
2023-09-11T06:50:32.521Z,12.88
2023-09-11T06:53:00.407Z,13.70
2023-09-11T06:55:28.290Z,12.13
2023-09-11T06:57:57.845Z,13.15
2023-09-11T07:00:27.243Z,13.40
2023-09-11T07:02:55.394Z,12.70
2023-09-11T07:05:23.772Z,12.88
2023-09-11T07:07:51.713Z,13.52
2023-09-11T07:10:30.074Z,12.32
2023-09-11T07:12:58.978Z,12.65
2023-09-11T07:15:28.545Z,12.68
2023-09-11T07:17:56.743Z,13.35
2023-09-11T07:20:28.543Z,12.23
2023-09-11T07:22:56.643Z,12.07
2023-09-11T07:25:25.203Z,13.35
2023-09-11T07:27:56.385Z,13.13
2023-09-11T07:30:25.018Z,12.68
2023-09-11T07:32:55.414Z,13.60
2023-09-11T07:35:23.839Z,12.68
2023-09-11T07:37:51.786Z,12.48
2023-09-11T07:40:21.060Z,11.52
2023-09-11T07:42:48.998Z,12.70
2023-09-11T07:45:17.075Z,12.43
2023-09-11T07:47:45.199Z,11.85
2023-09-11T07:50:14.573Z,11.73
2023-09-11T07:52:42.664Z,10.68
2023-09-11T07:55:10.763Z,11.73
2023-09-11T07:57:41.455Z,10.85
2023-09-11T08:00:10.507Z,10.75
2023-09-11T08:02:39.197Z,11.00
2023-09-11T08:05:07.622Z,9.38
2023-09-11T08:07:36.940Z,10.63
2023-09-11T08:10:05.372Z,11.18
2023-09-11T08:12:35.784Z,10.73
2023-09-11T08:15:04.375Z,10.52
2023-09-11T08:17:33.183Z,10.20
2023-09-11T08:20:01.229Z,9.77
2023-09-11T08:22:29.247Z,9.23
2023-09-11T08:24:58.696Z,9.48
2023-09-11T08:27:26.555Z,8.82
2023-09-11T08:29:56.801Z,8.63
2023-09-11T08:32:24.944Z,8.98
2023-09-11T08:34:52.954Z,10.15
2023-09-11T08:37:20.969Z,9.10
2023-09-11T08:39:48.921Z,8.18
2023-09-11T08:42:18.388Z,8.55
2023-09-11T08:44:46.609Z,10.20
2023-09-11T08:47:16.582Z,9.00
2023-09-11T08:49:46.395Z,9.40
2023-09-11T08:52:16.158Z,10.35
2023-09-11T08:54:47.990Z,9.43
2023-09-11T08:57:22.510Z,9.63
2023-09-11T08:59:54.979Z,9.77
2023-09-11T09:02:25.545Z,8.70
2023-09-11T09:04:53.938Z,8.98
2023-09-11T09:07:22.861Z,9.77
2023-09-11T09:09:50.939Z,9.48
2023-09-11T09:12:20.469Z,9.13
2023-09-11T09:14:50.167Z,8.68
2023-09-11T09:17:18.299Z,9.43
2023-09-11T09:19:46.261Z,8.20
2023-09-11T09:22:14.903Z,7.93
2023-09-11T09:24:51.011Z,8.27
2023-09-11T09:27:21.345Z,9.05
2023-09-11T09:29:50.678Z,8.00
2023-09-11T09:32:19.078Z,8.13
2023-09-11T09:34:52.315Z,9.63
2023-09-11T09:37:21.974Z,8.20
2023-09-11T09:39:51.475Z,8.63
2023-09-11T09:42:21.326Z,8.13
2023-09-11T09:44:53.915Z,7.82
2023-09-11T09:47:23.628Z,8.75
2023-09-11T09:49:53.764Z,8.23
2023-09-11T09:52:22.919Z,8.02
2023-09-11T09:54:52.613Z,8.27
2023-09-11T09:57:23.592Z,9.73
2023-09-11T09:59:54.179Z,9.07
2023-09-11T10:02:28.346Z,9.27
2023-09-11T10:04:58.855Z,10.38
2023-09-11T10:07:39.732Z,10.20
2023-09-11T10:10:25.108Z,8.57
2023-09-11T10:13:14.229Z,8.38
2023-09-11T10:15:44.094Z,7.85
2023-09-11T10:18:13.585Z,9.05
2023-09-11T10:20:42.215Z,10.43
2023-09-11T10:23:10.939Z,9.10
2023-09-11T10:25:41.292Z,9.07
2023-09-11T10:28:15.851Z,8.70
2023-09-11T10:30:58.118Z,8.77
2023-09-11T10:33:36.912Z,9.00
2023-09-11T10:36:10.226Z,8.95
2023-09-11T10:38:39.062Z,9.00
2023-09-11T10:41:09.120Z,8.40
2023-09-11T10:43:40.060Z,8.88
2023-09-11T10:46:19.765Z,9.20
2023-09-11T10:48:48.110Z,9.43
2023-09-11T10:51:17.654Z,9.50
2023-09-11T10:53:49.579Z,9.00
2023-09-11T10:56:18.091Z,8.68
2023-09-11T10:58:47.460Z,10.57
2023-09-11T11:01:16.229Z,9.25
2023-09-11T11:03:44.423Z,8.60
2023-09-11T11:06:18.817Z,9.52
2023-09-11T11:08:48.635Z,8.90
2023-09-11T11:11:22.551Z,9.77
2023-09-11T11:14:24.322Z,7.85
2023-09-11T11:17:02.558Z,9.52
2023-09-11T11:19:32.402Z,8.70
2023-09-11T11:22:02.181Z,9.52
2023-09-11T11:24:35.923Z,8.95
2023-09-11T11:27:05.496Z,8.13
2023-09-11T11:29:34.422Z,9.30
2023-09-11T11:32:08.386Z,8.77
2023-09-11T11:34:39.092Z,8.70
2023-09-11T11:37:07.473Z,9.07
2023-09-11T11:39:39.009Z,9.25
2023-09-11T11:42:08.656Z,7.95
2023-09-11T11:44:38.125Z,8.10
2023-09-11T11:47:08.479Z,8.70
2023-09-11T11:49:37.169Z,9.13
2023-09-11T11:52:06.814Z,9.55
2023-09-11T11:54:35.971Z,9.23
2023-09-11T11:57:05.872Z,10.18
2023-09-11T11:59:35.697Z,9.20
2023-09-11T12:02:04.532Z,9.23
2023-09-11T12:07:07.196Z,8.80
2023-09-11T12:09:35.153Z,7.60
2023-09-11T12:12:07.112Z,8.35
2023-09-11T12:14:37.404Z,8.77
2023-09-11T12:17:10.037Z,7.40
2023-09-11T12:19:39.369Z,7.53
2023-09-11T12:22:07.716Z,8.20
2023-09-11T12:24:35.650Z,7.53
2023-09-11T12:27:06.248Z,8.25
2023-09-11T12:29:34.967Z,8.18
2023-09-11T12:32:03.252Z,7.00
2023-09-11T12:34:45.531Z,7.03
2023-09-11T12:37:13.609Z,7.50
2023-09-11T12:39:41.945Z,7.65
2023-09-11T12:42:12.642Z,8.57
2023-09-11T12:44:40.768Z,9.20
2023-09-11T12:47:08.961Z,8.65
2023-09-11T12:49:37.343Z,8.10
2023-09-11T12:52:07.736Z,7.18
2023-09-11T12:54:36.838Z,6.97
2023-09-11T12:57:07.003Z,6.85
2023-09-11T12:59:35.367Z,6.95
2023-09-11T13:02:04.481Z,7.10
2023-09-11T13:04:34.159Z,6.28
2023-09-11T13:07:02.058Z,8.43
2023-09-11T13:09:35.003Z,6.78
2023-09-11T13:12:02.951Z,7.13
2023-09-11T13:14:30.924Z,6.43
2023-09-11T13:16:59.117Z,7.30
2023-09-11T13:19:27.151Z,6.45
2023-09-11T13:21:54.082Z,7.30
2023-09-11T13:24:22.085Z,6.25
2023-09-11T13:26:51.641Z,6.80
2023-09-11T13:29:19.566Z,7.30
2023-09-11T13:31:47.504Z,7.10
2023-09-11T13:34:15.556Z,5.95
2023-09-11T13:36:43.555Z,6.60
2023-09-11T13:39:13.047Z,6.38
2023-09-11T13:41:41.230Z,7.07
2023-09-11T13:44:11.691Z,6.28
2023-09-11T13:46:39.550Z,6.32
2023-09-11T13:49:08.514Z,7.13
2023-09-11T13:51:36.454Z,7.03
2023-09-11T13:54:04.618Z,6.45
2023-09-11T13:56:32.596Z,6.28
2023-09-11T13:59:00.474Z,6.03
2023-09-11T14:01:29.698Z,6.07
2023-09-11T14:03:57.796Z,5.90
2023-09-11T14:06:26.905Z,7.22
2023-09-11T14:08:54.859Z,5.68
2023-09-11T14:11:22.850Z,6.07
2023-09-11T14:13:50.731Z,5.80
2023-09-11T14:16:19.017Z,6.40
2023-09-11T14:18:48.365Z,6.35
2023-09-11T14:21:16.374Z,6.30
2023-09-11T14:23:44.440Z,7.00
2023-09-11T14:26:12.454Z,10.95
2023-09-11T14:28:40.711Z,8.50
2023-09-11T14:31:08.954Z,8.73
2023-09-11T14:33:36.910Z,6.47
2023-09-11T14:36:06.583Z,5.47
2023-09-11T14:38:34.503Z,5.50
2023-09-11T14:41:02.512Z,6.93
2023-09-11T14:43:30.468Z,6.47
2023-09-11T14:45:58.515Z,4.78
2023-09-11T14:48:26.672Z,6.40
2023-09-11T14:50:54.761Z,5.15
2023-09-11T14:53:38.567Z,5.97
2023-09-11T14:56:06.495Z,6.00
2023-09-11T14:58:34.397Z,5.38
2023-09-11T15:01:02.778Z,5.60
2023-09-11T15:03:30.850Z,6.30
2023-09-11T15:05:59.271Z,5.07
2023-09-11T15:08:28.613Z,5.18
2023-09-11T15:10:59.809Z,6.50
2023-09-11T15:13:28.577Z,6.75
2023-09-11T15:15:56.995Z,8.27
2023-09-11T15:18:25.984Z,7.75
2023-09-11T15:20:54.348Z,7.88
2023-09-11T15:23:22.654Z,7.90
2023-09-11T15:25:51.924Z,7.35
2023-09-11T15:28:19.864Z,8.57
2023-09-11T15:30:52.998Z,8.07
2023-09-11T15:33:21.494Z,7.78
2023-09-11T15:36:04.141Z,7.30
2023-09-11T15:38:33.245Z,8.07
2023-09-11T15:41:07.528Z,7.43
2023-09-11T15:43:37.851Z,7.68
2023-09-11T15:46:07.006Z,8.23
2023-09-11T15:48:37.976Z,7.63
2023-09-11T15:51:06.534Z,7.25
2023-09-11T15:53:35.828Z,7.05
2023-09-11T15:56:06.416Z,9.20
2023-09-11T15:58:34.498Z,7.55
2023-09-11T16:01:02.509Z,7.78
2023-09-11T16:03:30.515Z,7.30
2023-09-11T16:05:58.509Z,7.72
2023-09-11T16:08:26.457Z,7.40
2023-09-11T16:10:54.466Z,6.97
2023-09-11T16:13:24.258Z,6.68
2023-09-11T16:15:52.329Z,7.82
2023-09-11T16:18:20.338Z,7.35
2023-09-11T16:20:48.331Z,7.65
2023-09-11T16:23:16.328Z,7.20
2023-09-11T16:25:44.325Z,6.85
2023-09-11T16:28:12.942Z,7.30
2023-09-11T16:30:42.200Z,6.15
2023-09-11T16:33:10.213Z,6.63
2023-09-11T16:35:38.155Z,7.70
2023-09-11T16:38:06.065Z,9.75
2023-09-11T16:40:35.433Z,8.50
2023-09-11T16:43:03.548Z,10.88
2023-09-11T16:45:34.520Z,7.88
2023-09-11T16:48:04.435Z,8.25
2023-09-11T16:50:32.729Z,9.80
2023-09-11T16:53:00.798Z,7.75
2023-09-11T16:55:28.760Z,8.13
2023-09-11T16:57:56.664Z,6.53
2023-09-11T17:00:26.461Z,7.53
2023-09-11T17:02:54.611Z,7.50
2023-09-11T17:05:23.888Z,7.30
2023-09-11T17:07:51.803Z,7.10
2023-09-11T17:10:19.776Z,7.35
2023-09-11T17:12:50.122Z,7.32
2023-09-11T17:15:18.278Z,7.20
2023-09-11T17:17:46.618Z,8.00
2023-09-11T17:20:17.259Z,7.05
2023-09-11T17:22:46.816Z,6.68
2023-09-11T17:25:15.347Z,6.28
2023-09-11T17:27:43.468Z,7.55
2023-09-11T17:30:12.691Z,6.68
2023-09-11T17:32:40.842Z,7.90
2023-09-11T17:35:09.494Z,6.10
2023-09-11T17:37:37.534Z,8.00
2023-09-11T17:40:14.529Z,7.75
2023-09-11T17:42:42.430Z,7.03
2023-09-11T17:45:11.623Z,7.72
2023-09-11T17:47:41.153Z,6.97
2023-09-11T17:50:09.808Z,7.20
2023-09-11T17:52:37.792Z,7.68
2023-09-11T17:55:08.037Z,8.23
2023-09-11T17:57:35.992Z,9.48
2023-09-11T18:00:05.308Z,7.82
2023-09-11T18:02:33.388Z,7.32
2023-09-11T18:05:01.424Z,7.38
2023-09-11T18:07:31.610Z,7.90
2023-09-11T18:09:59.665Z,7.15
2023-09-11T18:12:31.029Z,8.25
2023-09-11T18:14:59.389Z,8.10
2023-09-11T18:17:28.349Z,7.80
2023-09-11T18:19:56.800Z,8.70
2023-09-11T18:22:24.732Z,9.27
2023-09-11T18:24:53.014Z,10.57
2023-09-11T18:27:20.953Z,9.10
2023-09-11T18:29:50.299Z,9.52
2023-09-11T18:32:19.232Z,9.13
2023-09-11T18:34:47.175Z,9.38
2023-09-11T18:37:15.628Z,8.75
2023-09-11T18:39:43.667Z,8.40
2023-09-11T18:42:12.158Z,8.85
2023-09-11T18:44:40.268Z,9.63
2023-09-11T18:47:09.603Z,10.40
2023-09-11T18:49:37.530Z,8.80
2023-09-11T18:52:06.204Z,9.77
2023-09-11T18:54:34.427Z,9.50
2023-09-11T18:57:02.791Z,11.20
2023-09-11T18:59:32.370Z,10.65
2023-09-11T19:02:03.419Z,10.38
2023-09-11T19:04:33.500Z,11.05
2023-09-11T19:07:02.047Z,10.80
2023-09-11T19:09:31.237Z,10.68
2023-09-11T19:11:59.260Z,9.18
2023-09-11T19:14:27.260Z,8.63
2023-09-11T19:16:55.162Z,10.15
2023-09-11T19:19:23.056Z,8.77
2023-09-11T19:21:52.366Z,8.40
2023-09-11T19:24:20.281Z,8.57
2023-09-11T19:26:48.272Z,8.85
2023-09-11T19:29:17.144Z,9.95
2023-09-11T19:31:45.228Z,11.32
2023-09-11T19:34:13.246Z,11.02
2023-09-11T19:36:41.399Z,9.77
2023-09-11T19:39:12.570Z,9.95
2023-09-11T19:41:40.786Z,9.98
2023-09-11T19:44:08.854Z,9.90
2023-09-11T19:46:37.068Z,10.60
2023-09-11T19:49:04.979Z,9.98
2023-09-11T19:51:32.909Z,10.05
2023-09-11T19:54:01.046Z,10.20
2023-09-11T19:56:30.598Z,10.55
2023-09-11T19:59:00.021Z,10.48
2023-09-11T20:01:30.768Z,12.10
2023-09-11T20:03:59.323Z,11.27
2023-09-11T20:06:27.655Z,11.15
2023-09-11T20:08:55.607Z,11.38
2023-09-11T20:11:23.622Z,10.48
2023-09-11T20:13:52.871Z,10.30
2023-09-11T20:16:20.930Z,10.65
2023-09-11T20:18:48.931Z,9.88
2023-09-11T20:21:16.886Z,10.10
2023-09-11T20:23:44.804Z,10.52
2023-09-11T20:26:12.650Z,10.85
2023-09-11T20:28:40.949Z,8.80
2023-09-11T20:31:16.508Z,10.25
2023-09-11T20:33:45.834Z,10.25
2023-09-11T20:36:14.008Z,10.23
2023-09-11T20:38:42.388Z,11.15
2023-09-11T20:41:10.450Z,10.60
2023-09-11T20:43:45.480Z,10.23
2023-09-11T20:46:16.534Z,10.30
2023-09-11T20:48:44.894Z,11.45
2023-09-11T20:51:16.295Z,10.40
2023-09-11T20:53:44.347Z,10.68
2023-09-11T20:56:12.247Z,11.07
2023-09-11T20:58:40.497Z,10.90
2023-09-11T21:01:10.940Z,11.52
2023-09-11T21:03:40.616Z,11.50
2023-09-11T21:06:10.235Z,11.35
2023-09-11T21:08:38.215Z,10.93
2023-09-11T21:11:06.097Z,10.85
2023-09-11T21:13:33.991Z,10.83
2023-09-11T21:16:02.002Z,11.37
2023-09-11T21:18:30.479Z,10.43
2023-09-11T21:20:59.819Z,10.30
2023-09-11T21:23:28.388Z,9.53
2023-09-11T21:25:57.297Z,11.30
2023-09-11T21:28:25.735Z,10.97
2023-09-11T21:30:54.529Z,11.40
2023-09-11T21:33:23.145Z,11.87
2023-09-11T21:35:51.264Z,12.70
2023-09-11T21:38:20.571Z,10.77
2023-09-11T21:40:48.469Z,10.77
2023-09-11T21:43:16.411Z,10.93
2023-09-11T21:45:44.893Z,10.80
2023-09-11T21:48:13.326Z,11.53
2023-09-11T21:50:41.355Z,11.20
2023-09-11T21:53:09.366Z,10.07
2023-09-11T21:55:38.584Z,11.43
2023-09-11T21:58:06.485Z,11.50
2023-09-11T22:00:34.478Z,12.20
2023-09-11T22:03:02.853Z,11.53
2023-09-11T22:05:32.130Z,11.83
2023-09-11T22:08:00.097Z,10.97
2023-09-11T22:10:27.982Z,11.63
2023-09-11T22:12:57.196Z,10.87
2023-09-11T22:15:25.130Z,11.27
2023-09-11T22:17:53.140Z,11.90
2023-09-11T22:20:21.168Z,11.60
2023-09-11T22:22:49.073Z,10.77
2023-09-11T22:25:17.026Z,11.30
2023-09-11T22:27:45.151Z,12.27
2023-09-11T22:30:15.265Z,11.43
2023-09-11T22:32:55.370Z,10.60
2023-09-11T22:35:24.098Z,10.60
2023-09-11T22:37:52.811Z,11.70
2023-09-11T22:40:20.945Z,10.10
2023-09-11T22:42:48.852Z,10.63
2023-09-11T22:45:18.295Z,11.77
2023-09-11T22:47:48.861Z,11.87
2023-09-11T22:50:17.024Z,11.40
2023-09-11T22:52:44.889Z,10.73
2023-09-11T22:55:12.759Z,11.47
2023-09-11T22:57:40.627Z,9.67
2023-09-11T23:00:09.572Z,12.50
2023-09-11T23:02:39.158Z,11.17
2023-09-11T23:05:07.498Z,12.00
2023-09-11T23:07:35.372Z,12.47
2023-09-11T23:10:03.636Z,11.40
2023-09-11T23:12:31.579Z,10.33
2023-09-11T23:14:59.562Z,10.87
2023-09-11T23:17:27.546Z,11.63
2023-09-11T23:19:56.842Z,12.23
2023-09-11T23:22:24.772Z,10.60
2023-09-11T23:24:52.940Z,11.37
2023-09-11T23:27:20.920Z,12.00
2023-09-11T23:29:48.910Z,11.00
2023-09-11T23:32:16.803Z,11.13
2023-09-11T23:34:44.694Z,11.57
2023-09-11T23:37:13.870Z,12.40
2023-09-11T23:39:41.775Z,11.07
2023-09-11T23:42:11.498Z,12.87
2023-09-11T23:44:39.405Z,11.10
2023-09-11T23:47:07.881Z,11.30
2023-09-11T23:49:35.801Z,12.10
2023-09-11T23:52:19.381Z,11.50
2023-09-11T23:54:52.974Z,12.53
2023-09-11T23:57:20.910Z,11.70
2023-09-11T23:59:48.804Z,12.57
